Panda — PBCS — position and weather

sailwx.info

Track history (hours):
 
Tides and Currents Weather Stations Pressure Air Temp Water Temp Dewpoint Dewpoint Depression Visibility Wind Speed Wind Dir Waves Ship Positions

Panda

Last reported at 2014-Aug-28 04:24 UTC. Time now 2014-Aug-28 07:23 UTC.
Position N 39°46' E 001°10'.

Length 89 m; draft 3 m.

Type: Cargo ship. MMSI: 245014000.

Date/timePositionNaut miles runAvg speedWind from/ knotsBaromVisibWave heightAir tempDewpointWater temp
2014-Aug-28 04:24N 39°46' E 001°10'19 9.8
2014-Aug-28 02:30N 39°49' E 001°34'9 9.5
2014-Aug-28 01:33N 39°50' E 001°46'9 9.4
2014-Aug-28 00:33N 39°52' E 001°58'9 9.3
2014-Aug-27 23:34N 39°53' E 002°10'9 9.2
2014-Aug-27 22:33N 39°55' E 002°22'9 9.5
2014-Aug-27 21:33N 39°56' E 002°34'10 9.7
2014-Aug-27 20:33N 39°57' E 002°46'29 9.3
2014-Aug-27 17:24N 39°57' E 003°25'8 9.5
2014-Aug-27 16:32N 39°55' E 003°35'10 9.8
2014-Aug-27 15:29N 39°52' E 003°48'90 9.9
2014-Aug-27 06:24N 39°46' E 005°45'10 9.4
2014-Aug-27 05:22N 39°47' E 005°58'21 9.3
2014-Aug-27 03:05N 39°47' E 006°25'5 9.0
2014-Aug-27 02:30N 39°47' E 006°32'18 9.3
2014-Aug-27 00:33N 39°48' E 006°56'58 9.6
2014-Aug-26 18:29N 39°49' E 008°11'9 9.7
2014-Aug-26 17:33N 39°50' E 008°23'8 0.9
2014-Aug-26 08:09N 39°52' E 008°33'0 0.0
2014-Aug-26 07:33N 39°52' E 008°33'0 0.0
2014-Aug-26 03:03N 39°52' E 008°33'  
2014-Aug-23 01:30N 39°53' E 008°31'5 5.2
2014-Aug-23 00:28N 39°50' E 008°26'10 9.1
2014-Aug-22 23:22N 39°50' E 008°13'191 9.4
2014-Aug-22 03:03N 41°52' E 004°58'8 9.9
2014-Aug-22 02:17N 41°56' E 004°50'7 9.4
2014-Aug-22 01:32N 42°01' E 004°43'9 9.4
2014-Aug-22 00:33N 42°07' E 004°33'9 9.1
2014-Aug-21 23:33N 42°13' E 004°24'9 9.3
2014-Aug-21 22:33N 42°18' E 004°14'9 9.0
2014-Aug-21 21:33N 42°24' E 004°04'9 8.9
2014-Aug-21 20:33N 42°30' E 003°55'9 9.4
2014-Aug-21 19:33N 42°36' E 003°46'9 9.4
2014-Aug-21 18:33N 42°42' E 003°36'9 9.2
2014-Aug-21 17:33N 42°48' E 003°26'9 9.1
2014-Aug-21 16:33N 42°54' E 003°16'9 8.9
2014-Aug-21 15:33N 42°59' E 003°07'3 0.8
2014-Aug-21 11:30N 43°01' E 003°03'0 0.0
2014-Aug-21 06:32N 43°01' E 003°03'0 0.0
2014-Aug-21 05:32N 43°01' E 003°03'0 0.0
2014-Aug-21 03:25N 43°01' E 003°03'0 0.0
2014-Aug-21 02:25N 43°01' E 003°03'0 0.0
2014-Aug-21 01:31N 43°01' E 003°03'0 0.0
2014-Aug-21 00:32N 43°01' E 003°03'0 0.0
2014-Aug-20 23:23N 43°01' E 003°03'0 0.0
2014-Aug-20 22:31N 43°01' E 003°03'0 0.0
2014-Aug-20 21:27N 43°01' E 003°03'0 0.2
2014-Aug-20 20:34N 43°01' E 003°04'9 8.7
2014-Aug-20 19:33N 43°00' E 003°16'1010.2
2014-Aug-20 18:33N 43°00' E 003°30'1010.3
2014-Aug-20 17:33N 42°60' E 003°43'10 9.9
2014-Aug-20 16:33N 42°60' E 003°57'1010.1
2014-Aug-20 15:33N 42°59' E 004°11'1010.0
2014-Aug-20 14:33N 42°59' E 004°25'1210.6
2014-Aug-20 13:25N 42°59' E 004°41'910.2
2014-Aug-20 12:32N 42°58' E 004°53'2710.9
2014-Aug-20 10:05N 42°58' E 005°30'610.9
2014-Aug-20 09:33N 42°58' E 005°38'1010.5
2014-Aug-20 08:33N 42°57' E 005°52'1010.4
2014-Aug-20 07:33N 42°57' E 006°06'1010.4
2014-Aug-20 06:33N 42°57' E 006°20'1110.8
2014-Aug-20 05:33N 42°60' E 006°35'1111.2
2014-Aug-20 04:33N 43°04' E 006°49'1111.0
2014-Aug-20 03:33N 43°09' E 007°03'6510.8
2014-Aug-19 21:33N 43°34' E 008°25'1110.6
2014-Aug-19 20:33N 43°38' E 008°38'1010.5
2014-Aug-19 19:33N 43°42' E 008°52'1110.6
2014-Aug-19 18:33N 43°47' E 009°05'1110.9
2014-Aug-19 17:33N 43°51' E 009°19'1110.6
2014-Aug-19 16:33N 43°55' E 009°32'1010.1
2014-Aug-19 15:33N 43°59' E 009°45'8 8.0
2014-Aug-19 14:33N 44°06' E 009°51'0 0.5
2014-Aug-19 13:33N 44°07' E 009°51'0 0.0
2014-Aug-19 12:33N 44°07' E 009°51'0 0.0
2014-Aug-19 11:33N 44°07' E 009°51'0 0.0
2014-Aug-19 10:24N 44°07' E 009°51'0 0.0
2014-Aug-19 09:33N 44°07' E 009°51'0 0.0
2014-Aug-19 08:33N 44°07' E 009°51'1 1.4
2014-Aug-19 07:34N 44°05' E 009°51'7 6.6
2014-Aug-19 06:34N 43°59' E 009°50'9 9.1
2014-Aug-19 05:34N 43°55' E 009°39'9 9.1
2014-Aug-19 04:34N 43°52' E 009°27'9 9.1
2014-Aug-19 03:34N 43°48' E 009°15'9 9.2
2014-Aug-19 02:34N 43°45' E 009°04'9 9.2
2014-Aug-19 01:34N 43°41' E 008°52'10 9.2
2014-Aug-19 00:29N 43°37' E 008°39'74 9.3
2014-Aug-18 16:32N 43°09' E 007°05'9 9.3
2014-Aug-18 15:33N 43°05' E 006°53'9 9.1
2014-Aug-18 14:33N 43°02' E 006°42'10 8.7
2014-Aug-18 13:27N 42°58' E 006°30'8 8.4
2014-Aug-18 12:27N 42°56' E 006°19'8 8.4
2014-Aug-18 11:32N 42°58' E 006°08'9 9.6
2014-Aug-18 10:33N 43°04' E 005°59'5 4.1
2014-Aug-18 09:25N 43°06' E 005°53'0 0.0
2014-Aug-18 08:19N 43°06' E 005°53'0 0.0
2014-Aug-18 07:31N 43°06' E 005°53'0 0.0
2014-Aug-18 06:25N 43°06' E 005°53'0 0.0
2014-Aug-18 05:31N 43°06' E 005°53'0 0.0
2014-Aug-18 04:27N 43°06' E 005°53'  
Track history (hours):
 
Tides and Currents Weather Stations Pressure Air Temp Water Temp Dewpoint Dewpoint Depression Visibility Wind Speed Wind Dir Waves Ship Positions

Panda

Last reported at 2014-Aug-28 04:24 UTC. Time now 2014-Aug-28 07:23 UTC.
Position N 39°46' E 001°10'.

Length 89 m; draft 3 m.

Type: Cargo ship. MMSI: 245014000.

Date/timePositionNaut miles runAvg speedWind from/ knotsBaromVisibWave heightAir tempDewpointWater temp
2014-Aug-28 04:24N 39°46' E 001°10'19 9.8
2014-Aug-28 02:30N 39°49' E 001°34'9 9.5
2014-Aug-28 01:33N 39°50' E 001°46'9 9.4
2014-Aug-28 00:33N 39°52' E 001°58'9 9.3
2014-Aug-27 23:34N 39°53' E 002°10'9 9.2
2014-Aug-27 22:33N 39°55' E 002°22'9 9.5
2014-Aug-27 21:33N 39°56' E 002°34'10 9.7
2014-Aug-27 20:33N 39°57' E 002°46'29 9.3
2014-Aug-27 17:24N 39°57' E 003°25'8 9.5
2014-Aug-27 16:32N 39°55' E 003°35'10 9.8
2014-Aug-27 15:29N 39°52' E 003°48'90 9.9
2014-Aug-27 06:24N 39°46' E 005°45'10 9.4
2014-Aug-27 05:22N 39°47' E 005°58'21 9.3
2014-Aug-27 03:05N 39°47' E 006°25'5 9.0
2014-Aug-27 02:30N 39°47' E 006°32'18 9.3
2014-Aug-27 00:33N 39°48' E 006°56'58 9.6
2014-Aug-26 18:29N 39°49' E 008°11'9 9.7
2014-Aug-26 17:33N 39°50' E 008°23'8 0.9
2014-Aug-26 08:09N 39°52' E 008°33'0 0.0
2014-Aug-26 07:33N 39°52' E 008°33'0 0.0
2014-Aug-26 03:03N 39°52' E 008°33'  
2014-Aug-23 01:30N 39°53' E 008°31'5 5.2
2014-Aug-23 00:28N 39°50' E 008°26'10 9.1
2014-Aug-22 23:22N 39°50' E 008°13'191 9.4
2014-Aug-22 03:03N 41°52' E 004°58'8 9.9
2014-Aug-22 02:17N 41°56' E 004°50'7 9.4
2014-Aug-22 01:32N 42°01' E 004°43'9 9.4
2014-Aug-22 00:33N 42°07' E 004°33'9 9.1
2014-Aug-21 23:33N 42°13' E 004°24'9 9.3
2014-Aug-21 22:33N 42°18' E 004°14'9 9.0
2014-Aug-21 21:33N 42°24' E 004°04'9 8.9
2014-Aug-21 20:33N 42°30' E 003°55'9 9.4
2014-Aug-21 19:33N 42°36' E 003°46'9 9.4
2014-Aug-21 18:33N 42°42' E 003°36'9 9.2
2014-Aug-21 17:33N 42°48' E 003°26'9 9.1
2014-Aug-21 16:33N 42°54' E 003°16'9 8.9
2014-Aug-21 15:33N 42°59' E 003°07'3 0.8
2014-Aug-21 11:30N 43°01' E 003°03'0 0.0
2014-Aug-21 06:32N 43°01' E 003°03'0 0.0
2014-Aug-21 05:32N 43°01' E 003°03'0 0.0
2014-Aug-21 03:25N 43°01' E 003°03'0 0.0
2014-Aug-21 02:25N 43°01' E 003°03'0 0.0
2014-Aug-21 01:31N 43°01' E 003°03'0 0.0
2014-Aug-21 00:32N 43°01' E 003°03'0 0.0
2014-Aug-20 23:23N 43°01' E 003°03'0 0.0
2014-Aug-20 22:31N 43°01' E 003°03'0 0.0
2014-Aug-20 21:27N 43°01' E 003°03'0 0.2
2014-Aug-20 20:34N 43°01' E 003°04'9 8.7
2014-Aug-20 19:33N 43°00' E 003°16'1010.2
2014-Aug-20 18:33N 43°00' E 003°30'1010.3
2014-Aug-20 17:33N 42°60' E 003°43'10 9.9
2014-Aug-20 16:33N 42°60' E 003°57'1010.1
2014-Aug-20 15:33N 42°59' E 004°11'1010.0
2014-Aug-20 14:33N 42°59' E 004°25'1210.6
2014-Aug-20 13:25N 42°59' E 004°41'910.2
2014-Aug-20 12:32N 42°58' E 004°53'2710.9
2014-Aug-20 10:05N 42°58' E 005°30'610.9
2014-Aug-20 09:33N 42°58' E 005°38'1010.5
2014-Aug-20 08:33N 42°57' E 005°52'1010.4
2014-Aug-20 07:33N 42°57' E 006°06'1010.4
2014-Aug-20 06:33N 42°57' E 006°20'1110.8
2014-Aug-20 05:33N 42°60' E 006°35'1111.2
2014-Aug-20 04:33N 43°04' E 006°49'1111.0
2014-Aug-20 03:33N 43°09' E 007°03'6510.8
2014-Aug-19 21:33N 43°34' E 008°25'1110.6
2014-Aug-19 20:33N 43°38' E 008°38'1010.5
2014-Aug-19 19:33N 43°42' E 008°52'1110.6
2014-Aug-19 18:33N 43°47' E 009°05'1110.9
2014-Aug-19 17:33N 43°51' E 009°19'1110.6
2014-Aug-19 16:33N 43°55' E 009°32'1010.1
2014-Aug-19 15:33N 43°59' E 009°45'8 8.0
2014-Aug-19 14:33N 44°06' E 009°51'0 0.5
2014-Aug-19 13:33N 44°07' E 009°51'0 0.0
2014-Aug-19 12:33N 44°07' E 009°51'0 0.0
2014-Aug-19 11:33N 44°07' E 009°51'0 0.0
2014-Aug-19 10:24N 44°07' E 009°51'0 0.0
2014-Aug-19 09:33N 44°07' E 009°51'0 0.0
2014-Aug-19 08:33N 44°07' E 009°51'1 1.4
2014-Aug-19 07:34N 44°05' E 009°51'7 6.6
2014-Aug-19 06:34N 43°59' E 009°50'9 9.1
2014-Aug-19 05:34N 43°55' E 009°39'9 9.1
2014-Aug-19 04:34N 43°52' E 009°27'9 9.1
2014-Aug-19 03:34N 43°48' E 009°15'9 9.2
2014-Aug-19 02:34N 43°45' E 009°04'9 9.2
2014-Aug-19 01:34N 43°41' E 008°52'10 9.2
2014-Aug-19 00:29N 43°37' E 008°39'74 9.3
2014-Aug-18 16:32N 43°09' E 007°05'9 9.3
2014-Aug-18 15:33N 43°05' E 006°53'9 9.1
2014-Aug-18 14:33N 43°02' E 006°42'10 8.7
2014-Aug-18 13:27N 42°58' E 006°30'8 8.4
2014-Aug-18 12:27N 42°56' E 006°19'8 8.4
2014-Aug-18 11:32N 42°58' E 006°08'9 9.6
2014-Aug-18 10:33N 43°04' E 005°59'5 4.1
2014-Aug-18 09:25N 43°06' E 005°53'0 0.0
2014-Aug-18 08:19N 43°06' E 005°53'0 0.0
2014-Aug-18 07:31N 43°06' E 005°53'0 0.0
2014-Aug-18 06:25N 43°06' E 005°53'0 0.0
2014-Aug-18 05:31N 43°06' E 005°53'0 0.0
2014-Aug-18 04:27N 43°06' E 005°53'  

Dump ship's entire track history